CheckWX is a tool to help pilots better visualize weather data.  It is not intended as a substitute for an official pre-flight weather briefing.

12:45:43 UTC

ENHM METAR
Heimdal Oilp
Heimdal Oilp, Norway
Current

26 mins ago

ENHM 181220Z 21036KT 9999 FEW015 SCT024 08/05 Q0998 W08/S/
Observed
Feb-18 @ 12:20 UTC
Wind
  • 210° at 36 KTS
Visibility
10,000+ meters
Flight Rules
VFR
Cloud Levels
  • Few at 1,500' AGL
  • Scattered at 2,400' AGL
Temperature
C / 46°F
Dewpoint
C / 41°F
Humidity
82%
Altimeter
29.47" Hg
Pressure
997.92 hPa
Previous

56 mins ago

ENHM 181150Z 21036KT 9999 FEW018 BKN022 08/06 Q0998 W08/S/
Observed
Feb-18 @ 11:50 UTC
Wind
  • 210° at 36 KTS
Visibility
10,000+ meters
Flight Rules
MVFR
Cloud Levels
  • Few at 1,800' AGL
  • Broken at 2,200' AGL
Temperature
C / 46°F
Dewpoint
C / 43°F
Humidity
87%
Altimeter
29.47" Hg
Pressure
997.92 hPa
Previous

1 hour ago

ENHM 181120Z 21037KT 9999 FEW019 BKN025 08/06 Q0999 W///S/
Observed
Feb-18 @ 11:20 UTC
Wind
  • 210° at 37 KTS
Visibility
10,000+ meters
Flight Rules
MVFR
Cloud Levels
  • Few at 1,900' AGL
  • Broken at 2,500' AGL
Temperature
C / 46°F
Dewpoint
C / 43°F
Humidity
87%
Altimeter
29.5" Hg
Pressure
998.92 hPa